Time;durP1;ratioP1;P1;durP2;ratioP2;P2;SDS_P1;SDS_P2;PMS_P1;PMS_P2;Temp;Humidity;BMP_temperature;BMP_pressure;BME280_temperature;BME280_humidity;BME280_pressure;Samples;Min_cycle;Max_cycle;Signal;HPM_P1;HPM_P2
2022/01/23 00:00:47;;;;;;;11.68;6.65;;;5.80;99.90;;;;;;5014745;28;20474;-73
2022/01/23 00:03:18;;;;;;;17.30;7.43;;;5.80;99.90;;;;;;4998276;28;20057;-72
2022/01/23 00:05:48;;;;;;;18.00;7.30;;;5.90;99.90;;;;;;4998068;28;20057;-75
2022/01/23 00:08:17;;;;;;;13.05;7.50;;;5.80;99.90;;;;;;5015188;28;20327;-73
2022/01/23 00:10:43;;;;;;;27.15;7.50;;;5.80;99.90;;;;;;5018530;28;20100;-73
2022/01/23 00:18:33;;;;;;;17.25;7.63;;;5.80;99.90;;;;;;5001591;28;20061;-74
2022/01/23 00:20:59;;;;;;;14.73;7.32;;;5.80;99.90;;;;;;5018203;28;20045;-73
2022/01/23 00:23:33;;;;;;;17.00;6.40;;;5.80;99.90;;;;;;5001950;28;20061;-74
2022/01/23 00:31:33;;;;;;;13.77;7.00;;;5.80;99.90;;;;;;4990162;28;20057;-73
2022/01/23 00:33:59;;;;;;;12.80;7.25;;;5.80;99.90;;;;;;5001464;28;20054;-75
2022/01/23 00:36:26;;;;;;;19.90;7.00;;;5.80;99.90;;;;;;5018646;28;20129;-73
2022/01/23 00:38:51;;;;;;;14.65;7.30;;;5.80;99.90;;;;;;5018237;28;20042;-72
2022/01/23 00:41:17;;;;;;;14.48;6.97;;;5.80;99.90;;;;;;5018781;28;20347;-71
2022/01/23 00:43:45;;;;;;;18.70;6.95;;;5.80;99.90;;;;;;5018645;28;20125;-72
2022/01/23 00:51:28;;;;;;;12.98;6.75;;;5.80;99.90;;;;;;5017840;28;20141;-73
2022/01/23 00:53:57;;;;;;;11.65;6.35;;;5.80;99.90;;;;;;5000626;28;20052;-73
2022/01/23 00:56:24;;;;;;;14.75;6.30;;;5.80;99.90;;;;;;5017791;28;20046;-73
2022/01/23 00:58:49;;;;;;;15.43;6.80;;;5.80;99.90;;;;;;5000844;28;20112;-74
2022/01/23 01:01:15;;;;;;;12.57;6.75;;;5.80;99.90;;;;;;5018196;28;20447;-74
2022/01/23 01:03:42;;;;;;;10.52;6.70;;;5.80;99.90;;;;;;5000372;28;20050;-77
2022/01/23 01:06:07;;;;;;;11.45;6.90;;;5.80;99.90;;;;;;5000564;28;20053;-73
2022/01/23 01:08:33;;;;;;;15.23;7.00;;;5.80;99.90;;;;;;5018148;28;20049;-74
2022/01/23 01:11:21;;;;;;;13.75;6.78;;;5.80;99.90;;;;;;5017758;28;20045;-75
2022/01/23 01:32:59;;;;;;;9.50;6.28;;;5.70;99.90;;;;;;5000062;28;20096;-74
2022/01/23 01:36:05;;;;;;;11.68;6.32;;;5.80;99.90;;;;;;5016899;28;20049;-74
2022/01/23 01:38:07;;;;;;;8.77;6.38;;;5.80;99.90;;;;;;4991578;28;20096;-75
2022/01/23 01:40:33;;;;;;;12.13;7.25;;;5.70;99.90;;;;;;5000205;28;20081;-72
2022/01/23 01:42:59;;;;;;;11.93;7.38;;;5.70;99.90;;;;;;5017774;28;20129;-72
2022/01/23 01:45:28;;;;;;;14.27;6.72;;;5.70;99.90;;;;;;5017081;28;20045;-74
2022/01/23 01:47:56;;;;;;;13.98;7.40;;;5.70;99.90;;;;;;5017369;28;20092;-74
2022/01/23 01:50:21;;;;;;;12.23;6.70;;;5.70;99.90;;;;;;4999613;28;20042;-72
2022/01/23 01:52:47;;;;;;;12.27;7.00;;;5.70;99.90;;;;;;5016670;28;20103;-72
2022/01/23 01:55:20;;;;;;;18.60;6.95;;;5.70;99.90;;;;;;5016883;28;20042;-73
2022/01/23 01:57:55;;;;;;;14.93;7.05;;;5.70;99.90;;;;;;5017009;28;20049;-75
2022/01/23 02:08:28;;;;;;;19.33;7.07;;;5.70;99.90;;;;;;4999918;28;20054;-73
2022/01/23 02:11:02;;;;;;;15.40;6.72;;;5.70;99.90;;;;;;4983438;28;20050;-76
2022/01/23 02:13:32;;;;;;;15.15;6.68;;;5.70;99.90;;;;;;5016531;28;20451;-72
2022/01/23 02:16:18;;;;;;;11.55;7.78;;;5.70;99.90;;;;;;4999226;28;20073;-72
2022/01/23 02:52:08;;;;;;;18.33;6.63;;;5.70;99.90;;;;;;5014638;28;20136;-74
2022/01/23 02:57:07;;;;;;;13.23;6.35;;;5.70;99.90;;;;;;5015827;28;20342;-72
2022/01/23 02:59:36;;;;;;;15.10;6.90;;;5.70;99.90;;;;;;4998492;28;20057;-74
2022/01/23 03:02:26;;;;;;;16.58;6.97;;;5.70;99.90;;;;;;4998660;28;20053;-76
2022/01/23 03:04:54;;;;;;;15.27;6.35;;;5.70;99.90;;;;;;5015898;28;20427;-74
2022/01/23 03:10:17;;;;;;;17.45;7.47;;;5.70;99.90;;;;;;5015460;28;20398;-76
2022/01/23 03:15:44;;;;;;;18.60;7.40;;;5.80;99.90;;;;;;5015774;28;20060;-74
2022/01/23 03:26:27;;;;;;;20.55;6.95;;;5.70;99.90;;;;;;5015749;28;20394;-74
2022/01/23 03:32:00;;;;;;;12.90;6.70;;;5.70;99.90;;;;;;4998501;28;20060;-72
2022/01/23 03:34:27;;;;;;;15.40;6.72;;;5.70;99.90;;;;;;5015356;28;20366;-72
2022/01/23 03:36:55;;;;;;;18.77;6.72;;;5.70;99.90;;;;;;4997981;28;20050;-73
2022/01/23 03:39:21;;;;;;;22.60;7.93;;;5.70;99.90;;;;;;5016039;28;20064;-76
2022/01/23 03:41:46;;;;;;;15.75;7.57;;;5.90;99.90;;;;;;5015345;28;20447;-75
2022/01/23 03:44:15;;;;;;;14.43;7.00;;;5.70;99.90;;;;;;4998195;28;20068;-73
2022/01/23 03:47:00;;;;;;;17.80;7.78;;;6.00;99.90;;;;;;5015155;28;20529;-76
2022/01/23 03:49:32;;;;;;;12.13;6.88;;;5.70;99.90;;;;;;5014904;28;20089;-75
2022/01/23 03:52:07;;;;;;;17.42;7.25;;;5.70;99.90;;;;;;4995965;28;20402;-74
2022/01/23 03:54:33;;;;;;;19.27;7.55;;;5.70;99.90;;;;;;4994297;28;20054;-72
2022/01/23 03:57:00;;;;;;;16.13;7.25;;;5.70;99.90;;;;;;4994583;28;20090;-73
2022/01/23 03:59:28;;;;;;;17.30;7.10;;;5.70;99.90;;;;;;4995383;28;20085;-73
2022/01/23 04:01:54;;;;;;;14.07;6.78;;;5.70;99.90;;;;;;4978440;28;20050;-77
2022/01/23 04:04:38;;;;;;;12.73;7.30;;;5.80;99.90;;;;;;4995441;28;20443;-75
2022/01/23 04:07:06;;;;;;;13.77;6.88;;;5.70;99.90;;;;;;4995455;28;20055;-74
2022/01/23 04:09:32;;;;;;;14.27;6.70;;;5.70;99.90;;;;;;4995345;28;20069;-74
2022/01/23 04:11:58;;;;;;;16.25;7.68;;;5.70;99.90;;;;;;4994691;28;20050;-73
2022/01/23 04:14:25;;;;;;;13.38;6.85;;;5.70;99.90;;;;;;4995272;28;20058;-73
2022/01/23 04:33:29;;;;;;;17.80;7.22;;;5.70;99.90;;;;;;5014822;28;20057;-75
2022/01/23 04:47:36;;;;;;;17.83;6.78;;;5.70;99.90;;;;;;4997331;28;20124;-75
2022/01/23 05:00:48;;;;;;;13.70;6.68;;;5.70;99.90;;;;;;5018203;28;20396;-73
2022/01/23 05:06:02;;;;;;;13.75;6.43;;;5.70;99.90;;;;;;5017906;28;20120;-74
2022/01/23 05:08:30;;;;;;;15.10;6.70;;;5.70;99.90;;;;;;5018287;28;20116;-75
2022/01/23 05:10:59;;;;;;;16.92;8.13;;;5.70;99.90;;;;;;5017670;28;20049;-73
2022/01/23 05:13:26;;;;;;;11.45;6.63;;;5.70;99.90;;;;;;5018099;28;20046;-74
2022/01/23 05:15:52;;;;;;;14.27;6.95;;;5.70;99.90;;;;;;5017753;28;20137;-73
2022/01/23 05:18:18;;;;;;;12.60;7.00;;;5.70;99.90;;;;;;5017894;28;20499;-73
2022/01/23 05:20:46;;;;;;;14.73;7.10;;;5.70;99.90;;;;;;5017339;28;20135;-74
2022/01/23 05:23:11;;;;;;;14.10;7.13;;;5.70;99.90;;;;;;5017410;28;20048;-74
2022/01/23 05:25:38;;;;;;;15.70;6.78;;;5.70;99.90;;;;;;5017721;28;20447;-74
2022/01/23 05:28:04;;;;;;;12.07;7.03;;;5.70;99.90;;;;;;5000534;28;20104;-73
2022/01/23 05:30:29;;;;;;;17.73;7.15;;;5.70;99.90;;;;;;5017373;28;20525;-75
2022/01/23 05:32:58;;;;;;;15.48;7.50;;;5.70;99.90;;;;;;5000368;28;20099;-73
2022/01/23 05:35:25;;;;;;;15.98;7.25;;;5.80;99.90;;;;;;5017368;28;20046;-75
2022/01/23 05:37:50;;;;;;;14.43;7.05;;;5.80;99.90;;;;;;4999903;28;20050;-73
2022/01/23 05:40:18;;;;;;;16.13;7.93;;;5.80;99.90;;;;;;5017462;28;20573;-72
2022/01/23 05:42:44;;;;;;;10.75;6.82;;;5.80;99.90;;;;;;5000281;28;20058;-73
2022/01/23 05:45:10;;;;;;;14.32;7.20;;;5.80;99.90;;;;;;5000568;28;20549;-74
2022/01/23 05:47:36;;;;;;;13.70;6.68;;;5.70;99.90;;;;;;4999002;28;20462;-73
2022/01/23 05:50:03;;;;;;;12.20;6.63;;;5.80;99.90;;;;;;5017080;28;20382;-75
2022/01/23 05:52:31;;;;;;;12.07;6.70;;;5.80;99.90;;;;;;5017026;28;20116;-73
2022/01/23 05:54:57;;;;;;;14.65;7.07;;;5.70;99.90;;;;;;5016829;28;20058;-74
2022/01/23 05:57:22;;;;;;;13.77;6.70;;;5.80;99.90;;;;;;5016768;28;20488;-75
2022/01/23 05:59:48;;;;;;;14.85;6.93;;;5.70;99.90;;;;;;5000010;28;20058;-75
2022/01/23 06:02:13;;;;;;;12.55;6.20;;;5.80;99.90;;;;;;4999806;28;20065;-75
2022/01/23 06:04:39;;;;;;;13.80;6.35;;;5.80;99.90;;;;;;4983639;28;20344;-74
2022/01/23 06:07:04;;;;;;;12.93;7.53;;;5.80;99.90;;;;;;5015970;28;20092;-74
2022/01/23 06:09:30;;;;;;;14.82;7.35;;;5.80;99.90;;;;;;5016626;28;20156;-73
2022/01/23 06:11:56;;;;;;;14.30;6.70;;;5.80;99.90;;;;;;4999549;28;20073;-73
2022/01/23 06:14:21;;;;;;;12.05;6.63;;;5.70;99.90;;;;;;5016649;28;20489;-75
2022/01/23 06:16:48;;;;;;;15.23;6.60;;;5.80;99.90;;;;;;5015877;28;20060;-73
2022/01/23 06:19:14;;;;;;;20.15;7.32;;;5.70;99.90;;;;;;5016753;28;20084;-75
2022/01/23 06:21:39;;;;;;;13.90;6.60;;;5.80;99.90;;;;;;4999210;28;20045;-73
2022/01/23 06:26:58;;;;;;;13.73;7.28;;;5.80;99.90;;;;;;5016407;28;20081;-73
2022/01/23 06:29:29;;;;;;;14.88;6.85;;;5.80;99.90;;;;;;4996875;28;20050;-72
2022/01/23 06:31:55;;;;;;;12.95;6.82;;;5.80;99.90;;;;;;4982953;28;20048;-72
2022/01/23 06:34:20;;;;;;;16.65;7.75;;;5.80;99.90;;;;;;4998675;28;20049;-72
2022/01/23 06:36:50;;;;;;;11.43;6.85;;;5.80;99.90;;;;;;4998084;28;20054;-73
2022/01/23 06:39:15;;;;;;;16.42;6.90;;;5.70;99.90;;;;;;4998926;28;20505;-74
2022/01/23 06:41:41;;;;;;;11.80;6.80;;;5.80;99.90;;;;;;4998545;28;20081;-73
2022/01/23 06:44:07;;;;;;;14.13;7.68;;;5.70;99.90;;;;;;5016306;28;20125;-74
2022/01/23 06:46:33;;;;;;;16.02;6.93;;;5.70;99.90;;;;;;5016071;28;20077;-73
2022/01/23 06:48:59;;;;;;;13.68;7.10;;;5.90;99.90;;;;;;4998518;28;20129;-72
2022/01/23 06:51:25;;;;;;;15.05;7.57;;;5.70;99.90;;;;;;5016233;28;20103;-72
2022/01/23 06:53:52;;;;;;;14.60;7.93;;;5.70;99.90;;;;;;5015842;28;20462;-76
2022/01/23 06:56:18;;;;;;;14.65;7.25;;;5.70;99.90;;;;;;5015919;28;20049;-74
2022/01/23 06:58:44;;;;;;;11.52;6.82;;;5.70;99.90;;;;;;4998297;28;20493;-71
2022/01/23 07:01:10;;;;;;;16.48;7.38;;;5.70;99.90;;;;;;5016172;28;20050;-74
2022/01/23 07:03:36;;;;;;;13.20;7.20;;;5.70;99.90;;;;;;5017265;28;20128;-72
2022/01/23 07:06:02;;;;;;;14.85;7.05;;;5.70;99.90;;;;;;4997051;28;20390;-74
2022/01/23 07:08:28;;;;;;;11.55;6.93;;;5.70;99.90;;;;;;5015660;28;20053;-74
2022/01/23 07:10:54;;;;;;;13.02;7.13;;;6.20;99.90;;;;;;5014494;28;20038;-76
2022/01/23 07:13:20;;;;;;;11.27;6.47;;;5.70;99.90;;;;;;4993642;28;20046;-72
2022/01/23 07:15:47;;;;;;;15.82;6.57;;;5.60;99.90;;;;;;5015594;28;20058;-75
2022/01/23 07:18:15;;;;;;;20.73;7.63;;;5.70;99.90;;;;;;5014668;28;20045;-73
2022/01/23 07:20:42;;;;;;;14.95;7.10;;;5.60;99.90;;;;;;4998435;28;20084;-73
2022/01/23 07:23:07;;;;;;;14.45;7.72;;;5.70;99.90;;;;;;5015423;28;20050;-72
2022/01/23 07:25:33;;;;;;;12.15;7.22;;;5.60;99.90;;;;;;5015550;28;20045;-70
2022/01/23 07:28:00;;;;;;;12.65;7.80;;;5.60;99.90;;;;;;5015379;28;20050;-74
2022/01/23 07:30:34;;;;;;;16.95;7.60;;;5.60;99.90;;;;;;5015061;28;20454;-71
2022/01/23 07:32:59;;;;;;;14.55;7.53;;;5.60;99.90;;;;;;5000705;28;20444;-75
2022/01/23 07:35:25;;;;;;;13.13;7.75;;;5.70;99.90;;;;;;5028029;28;20121;-75
2022/01/23 07:37:51;;;;;;;16.55;8.07;;;5.60;99.90;;;;;;5014714;28;20085;-72
2022/01/23 07:40:17;;;;;;;15.32;7.80;;;5.70;99.90;;;;;;5019764;28;20073;-71
2022/01/23 07:42:42;;;;;;;15.25;7.18;;;5.70;99.90;;;;;;5022527;28;20462;-74
2022/01/23 07:45:08;;;;;;;16.67;7.82;;;5.60;99.90;;;;;;4997222;28;20470;-73
2022/01/23 07:47:34;;;;;;;13.25;7.35;;;5.60;99.90;;;;;;4996845;28;20053;-72
2022/01/23 07:50:02;;;;;;;15.23;7.40;;;5.60;99.90;;;;;;5014837;28;20447;-73
2022/01/23 07:52:30;;;;;;;13.23;7.40;;;5.60;99.90;;;;;;5014639;28;20034;-72
2022/01/23 07:54:56;;;;;;;15.98;8.07;;;5.60;99.90;;;;;;5015404;28;20092;-73
2022/01/23 07:57:22;;;;;;;13.02;6.97;;;5.70;99.90;;;;;;5014779;28;20152;-76
2022/01/23 07:59:48;;;;;;;12.45;7.00;;;5.60;99.90;;;;;;4996593;28;20472;-74
2022/01/23 08:02:14;;;;;;;14.15;7.70;;;5.70;99.90;;;;;;5015168;28;20060;-71
2022/01/23 08:04:40;;;;;;;16.17;7.32;;;5.60;99.90;;;;;;5014364;28;20455;-72
2022/01/23 08:07:11;;;;;;;14.95;7.75;;;5.70;99.90;;;;;;4997912;28;20057;-73
2022/01/23 08:09:37;;;;;;;14.05;7.03;;;5.70;99.90;;;;;;5011536;28;20504;-73
2022/01/23 08:12:03;;;;;;;15.07;7.72;;;5.70;99.90;;;;;;4996865;28;20050;-72
2022/01/23 08:14:29;;;;;;;12.63;7.65;;;5.80;99.90;;;;;;5009002;28;20069;-72
2022/01/23 08:16:54;;;;;;;14.27;7.40;;;5.80;99.90;;;;;;5013377;28;20406;-72
2022/01/23 08:19:20;;;;;;;12.88;7.03;;;5.80;99.90;;;;;;5014103;28;20133;-73
2022/01/23 08:21:46;;;;;;;14.63;7.63;;;5.80;99.90;;;;;;4964204;28;20104;-72
2022/01/23 08:24:11;;;;;;;15.32;7.85;;;5.80;99.90;;;;;;4997367;28;20050;-72
2022/01/23 08:26:37;;;;;;;15.43;7.03;;;5.80;99.90;;;;;;5014658;28;20057;-72
2022/01/23 08:29:05;;;;;;;10.85;7.13;;;5.90;99.90;;;;;;5014359;28;20061;-70
2022/01/23 08:31:30;;;;;;;11.90;7.32;;;5.90;99.90;;;;;;5018460;28;20050;-74
2022/01/23 08:33:56;;;;;;;13.13;6.78;;;5.90;99.90;;;;;;5017984;28;20521;-72
2022/01/23 08:36:22;;;;;;;11.85;6.50;;;6.00;99.90;;;;;;5018038;28;20413;-76
2022/01/23 08:38:48;;;;;;;12.27;6.47;;;6.00;99.90;;;;;;4999250;28;20042;-73
2022/01/23 08:43:58;;;;;;;10.93;6.10;;;6.10;99.90;;;;;;4999187;28;20058;-72
2022/01/23 08:46:24;;;;;;;11.32;6.20;;;6.10;99.90;;;;;;5000412;28;20124;-72
2022/01/23 08:48:49;;;;;;;10.88;6.43;;;6.10;99.90;;;;;;5018250;28;20085;-71
2022/01/23 08:51:15;;;;;;;9.45;5.90;;;6.20;99.90;;;;;;5001461;28;20057;-72
2022/01/23 08:53:41;;;;;;;9.38;6.00;;;6.20;99.90;;;;;;5000610;28;20049;-71
2022/01/23 08:56:06;;;;;;;10.07;6.43;;;6.20;99.90;;;;;;5018016;28;20509;-76
2022/01/23 08:58:32;;;;;;;8.75;5.60;;;6.20;99.90;;;;;;5017635;28;20061;-74
2022/01/23 09:00:58;;;;;;;9.55;5.75;;;6.30;99.90;;;;;;5017416;28;20125;-71
2022/01/23 09:03:23;;;;;;;15.10;5.78;;;6.30;99.90;;;;;;5000346;28;20374;-71
2022/01/23 09:05:49;;;;;;;9.07;5.95;;;6.30;99.90;;;;;;5018211;28;20045;-71
2022/01/23 09:08:15;;;;;;;9.27;5.93;;;6.40;99.90;;;;;;5000781;28;20420;-70
2022/01/23 09:10:51;;;;;;;10.00;4.65;;;6.40;99.90;;;;;;5000252;28;20042;-74
2022/01/23 09:13:31;;;;;;;5.80;3.50;;;6.40;99.90;;;;;;5000049;28;20133;-71
2022/01/23 09:15:57;;;;;;;7.35;3.40;;;6.40;99.90;;;;;;4999755;28;20481;-69
2022/01/23 09:18:22;;;;;;;6.28;4.28;;;6.50;99.90;;;;;;5000565;28;20053;-71
2022/01/23 09:20:48;;;;;;;5.93;4.13;;;6.50;99.90;;;;;;5000155;28;20339;-70
2022/01/23 09:23:13;;;;;;;7.97;4.15;;;6.50;99.90;;;;;;5017726;28;20104;-70
2022/01/23 09:25:39;;;;;;;8.88;4.30;;;6.50;99.90;;;;;;4999688;28;20049;-70
2022/01/23 09:28:07;;;;;;;8.02;3.90;;;6.50;99.90;;;;;;5000879;28;20359;-71
2022/01/23 09:30:36;;;;;;;7.07;3.45;;;6.60;99.90;;;;;;5017580;28;20458;-70
2022/01/23 09:33:02;;;;;;;6.93;4.22;;;6.60;99.90;;;;;;5000616;28;20096;-69
2022/01/23 09:35:28;;;;;;;8.18;4.13;;;6.70;99.90;;;;;;4999778;28;20090;-70
2022/01/23 09:37:53;;;;;;;10.02;4.53;;;6.70;99.90;;;;;;5017009;28;20082;-70
2022/01/23 09:40:19;;;;;;;7.82;5.30;;;6.70;99.90;;;;;;4999813;28;20053;-69
2022/01/23 09:42:51;;;;;;;8.80;5.55;;;6.80;99.90;;;;;;5017110;28;20041;-73
2022/01/23 09:45:18;;;;;;;9.82;6.28;;;6.80;99.90;;;;;;5017069;28;20061;-68
2022/01/23 09:47:44;;;;;;;10.93;6.57;;;6.80;99.90;;;;;;5016792;28;20470;-72
2022/01/23 09:50:11;;;;;;;9.05;6.35;;;6.80;99.90;;;;;;4999812;28;20092;-72
2022/01/23 09:52:39;;;;;;;10.48;6.53;;;6.80;99.90;;;;;;4999447;28;20411;-71
2022/01/23 09:55:09;;;;;;;11.95;6.88;;;6.80;99.90;;;;;;5017387;28;20085;-73
2022/01/23 09:57:41;;;;;;;10.07;6.95;;;6.80;99.90;;;;;;5016379;28;20053;-68
2022/01/23 10:00:10;;;;;;;10.02;6.78;;;6.90;99.90;;;;;;4996442;28;20046;-68
2022/01/23 10:02:36;;;;;;;10.43;6.70;;;6.90;99.90;;;;;;5014624;28;20065;-73
2022/01/23 10:05:04;;;;;;;10.45;7.00;;;7.00;99.90;;;;;;4997241;28;20038;-68
2022/01/23 10:07:31;;;;;;;10.43;6.20;;;7.00;99.90;;;;;;4997597;28;20046;-70
2022/01/23 10:10:09;;;;;;;10.23;6.85;;;7.00;99.90;;;;;;5016567;28;20038;-71
2022/01/23 10:12:37;;;;;;;10.80;6.85;;;7.00;99.90;;;;;;5013566;28;20434;-71
2022/01/23 10:15:03;;;;;;;10.40;6.75;;;7.10;99.90;;;;;;4997741;28;20418;-68
2022/01/23 10:17:28;;;;;;;11.32;7.25;;;7.10;99.90;;;;;;4994927;28;20057;-66
2022/01/23 10:19:54;;;;;;;11.00;6.10;;;7.20;99.90;;;;;;5015903;28;20347;-69
2022/01/23 10:22:20;;;;;;;12.80;6.10;;;7.20;99.90;;;;;;5011837;28;20471;-69
2022/01/23 10:24:46;;;;;;;8.88;5.70;;;7.30;99.90;;;;;;4984560;28;20136;-69
2022/01/23 10:27:11;;;;;;;7.82;5.93;;;7.30;99.90;;;;;;5012765;28;20080;-67
2022/01/23 10:29:43;;;;;;;8.02;5.72;;;7.30;99.90;;;;;;4997259;28;20046;-70
2022/01/23 10:32:19;;;;;;;9.52;5.32;;;7.40;99.90;;;;;;5015845;28;20463;-69
2022/01/23 10:34:56;;;;;;;8.77;5.47;;;7.40;99.90;;;;;;5005333;28;20038;-69
2022/01/23 10:37:32;;;;;;;6.40;4.53;;;7.50;99.90;;;;;;4979584;28;20108;-71
2022/01/23 10:40:00;;;;;;;4.30;2.97;;;7.50;99.90;;;;;;5007559;28;20339;-72
2022/01/23 10:48:25;;;;;;;7.40;3.10;;;7.50;99.90;;;;;;4996413;28;20133;-70
2022/01/23 10:51:12;;;;;;;4.60;3.10;;;7.50;99.90;;;;;;4997024;28;20320;-70
2022/01/23 10:53:59;;;;;;;4.93;2.40;;;7.50;99.90;;;;;;5013413;28;20473;-71
2022/01/23 10:56:26;;;;;;;3.67;1.27;;;7.50;99.90;;;;;;4979345;28;20192;-71
2022/01/23 10:59:03;;;;;;;3.25;1.50;;;7.60;99.90;;;;;;4997840;28;20065;-70
2022/01/23 11:01:29;;;;;;;2.28;1.50;;;7.60;99.90;;;;;;5015635;28;20451;-75
2022/01/23 11:04:10;;;;;;;3.58;1.60;;;7.60;99.90;;;;;;5013384;28;20187;-71
2022/01/23 11:07:03;;;;;;;3.63;2.03;;;7.70;99.90;;;;;;5000800;28;20045;-71
2022/01/23 11:09:37;;;;;;;4.67;2.13;;;7.70;99.90;;;;;;4992439;28;20387;-71
2022/01/23 11:12:13;;;;;;;5.97;2.20;;;7.70;99.90;;;;;;5009121;28;20363;-70
2022/01/23 11:17:24;;;;;;;3.38;2.25;;;7.80;99.90;;;;;;5005560;28;20402;-69
2022/01/23 11:19:58;;;;;;;6.47;2.35;;;7.80;99.90;;;;;;4997481;28;20046;-72
2022/01/23 11:22:32;;;;;;;3.00;1.90;;;7.80;99.90;;;;;;4999837;28;20038;-70
2022/01/23 11:25:04;;;;;;;3.40;1.40;;;7.80;99.90;;;;;;5006092;28;20122;-72
2022/01/23 11:27:35;;;;;;;2.17;1.40;;;7.70;99.90;;;;;;5012624;28;20046;-73
2022/01/23 11:30:08;;;;;;;3.22;1.60;;;7.60;99.90;;;;;;4998154;28;20058;-70
2022/01/23 11:32:39;;;;;;;2.83;1.80;;;7.70;99.90;;;;;;5010304;28;20030;-70
2022/01/23 11:35:09;;;;;;;5.25;2.35;;;7.60;99.90;;;;;;4999259;28;20065;-68
2022/01/23 11:37:40;;;;;;;4.53;2.65;;;7.70;99.90;;;;;;5009471;28;20060;-69
2022/01/23 11:40:21;;;;;;;4.10;2.20;;;7.70;99.90;;;;;;5017880;28;20137;-70
2022/01/23 11:53:54;;;;;;;3.42;1.50;;;7.90;99.90;;;;;;5009986;28;20136;-73
2022/01/23 11:56:25;;;;;;;1.88;1.10;;;8.00;99.90;;;;;;5006760;28;20387;-73
2022/01/23 11:58:53;;;;;;;2.40;1.40;;;8.00;99.90;;;;;;5002251;28;20089;-70
2022/01/23 12:01:21;;;;;;;3.42;1.63;;;8.30;99.90;;;;;;4981025;28;20046;-71
2022/01/23 12:04:17;;;;;;;2.85;1.40;;;8.00;99.90;;;;;;4992391;28;20054;-76
2022/01/23 12:06:45;;;;;;;3.13;1.50;;;8.00;99.90;;;;;;5011619;28;20100;-70
2022/01/23 12:09:16;;;;;;;3.17;1.70;;;8.00;99.90;;;;;;5011194;28;20104;-70
2022/01/23 12:12:01;;;;;;;3.00;1.60;;;8.10;99.90;;;;;;5012900;28;20049;-71
2022/01/23 12:17:08;;;;;;;2.33;1.50;;;8.10;99.90;;;;;;4988256;28;20134;-72
2022/01/23 12:19:58;;;;;;;2.97;1.40;;;7.90;99.90;;;;;;5013500;28;20158;-70
2022/01/23 12:22:32;;;;;;;3.25;1.38;;;7.90;99.90;;;;;;5014428;28;20071;-71
2022/01/23 12:25:05;;;;;;;2.00;1.40;;;7.90;99.90;;;;;;5015700;28;20034;-71
2022/01/23 12:27:31;;;;;;;2.38;1.40;;;7.90;99.90;;;;;;5014719;28;20050;-70
2022/01/23 12:30:18;;;;;;;3.22;1.58;;;8.00;99.90;;;;;;5000530;28;20057;-69
2022/01/23 12:32:44;;;;;;;3.42;1.70;;;7.90;99.90;;;;;;4975747;28;20063;-70
2022/01/23 12:35:10;;;;;;;2.40;1.48;;;8.00;99.90;;;;;;4980378;28;20070;-71
2022/01/23 12:37:55;;;;;;;2.95;1.38;;;8.00;99.90;;;;;;5004597;28;20046;-71
2022/01/23 12:40:32;;;;;;;4.07;1.45;;;8.00;99.90;;;;;;5008381;28;20041;-70
2022/01/23 12:43:17;;;;;;;4.22;1.52;;;8.00;99.90;;;;;;5008421;28;20066;-69
2022/01/23 12:46:00;;;;;;;3.08;1.50;;;8.00;99.90;;;;;;5012401;28;20038;-74
2022/01/23 12:48:26;;;;;;;4.63;1.50;;;8.00;99.90;;;;;;5008417;28;20046;-72
2022/01/23 12:50:59;;;;;;;2.60;1.55;;;8.00;99.90;;;;;;5009632;28;20085;-71
2022/01/23 12:53:43;;;;;;;2.33;1.38;;;8.00;99.90;;;;;;4997754;28;20089;-68
2022/01/23 12:56:14;;;;;;;2.90;1.58;;;8.00;99.90;;;;;;5012225;28;20081;-70
2022/01/23 12:58:42;;;;;;;3.83;1.98;;;8.10;99.90;;;;;;4999748;28;20053;-71
2022/01/23 13:01:17;;;;;;;2.33;1.52;;;8.10;99.90;;;;;;5018033;28;20104;-68
2022/01/23 13:03:53;;;;;;;3.13;1.65;;;8.10;99.90;;;;;;4998539;28;20038;-70
2022/01/23 13:06:49;;;;;;;3.67;1.67;;;8.10;99.90;;;;;;5017649;28;20124;-70
2022/01/23 13:09:47;;;;;;;3.00;1.77;;;8.10;99.90;;;;;;4986834;28;20371;-71
2022/01/23 13:12:29;;;;;;;4.18;1.63;;;8.10;99.90;;;;;;5016317;28;20046;-68
2022/01/23 13:26:30;;;;;;;3.42;2.00;;;8.10;99.90;;;;;;4997487;28;20054;-69
2022/01/23 13:34:48;;;;;;;4.00;2.40;;;8.10;99.90;;;;;;5015301;28;20367;-73
2022/01/23 13:37:20;;;;;;;5.40;2.50;;;8.20;99.90;;;;;;5017403;28;20038;-71
2022/01/23 13:39:52;;;;;;;4.57;2.55;;;8.20;99.90;;;;;;5017226;28;20108;-72
2022/01/23 13:59:16;;;;;;;5.82;3.33;;;8.00;99.90;;;;;;5016668;28;20358;-72
2022/01/23 14:01:50;;;;;;;5.22;3.30;;;8.00;99.90;;;;;;4999844;28;20065;-72
2022/01/23 14:04:17;;;;;;;5.68;3.60;;;8.00;99.90;;;;;;4999637;28;20050;-73
2022/01/23 14:06:45;;;;;;;4.38;3.25;;;7.90;99.90;;;;;;5016967;28;20054;-72
2022/01/23 14:09:13;;;;;;;7.68;3.90;;;7.90;99.90;;;;;;5016578;28;20089;-71
2022/01/23 14:11:40;;;;;;;6.97;3.25;;;7.90;99.90;;;;;;4998632;28;20042;-72
2022/01/23 14:14:15;;;;;;;7.38;4.03;;;7.90;99.90;;;;;;5016640;28;20053;-72
2022/01/23 14:16:42;;;;;;;5.45;4.47;;;7.90;99.90;;;;;;5016323;28;20057;-72
2022/01/23 14:19:20;;;;;;;7.20;4.50;;;7.90;99.90;;;;;;4999188;28;20053;-73
2022/01/23 14:21:50;;;;;;;6.65;3.70;;;7.80;99.90;;;;;;5016098;28;20046;-71
2022/01/23 14:24:28;;;;;;;8.07;3.63;;;7.80;99.90;;;;;;5016488;28;20422;-71
2022/01/23 14:27:08;;;;;;;5.75;3.03;;;7.80;99.90;;;;;;5016077;28;20407;-72
2022/01/23 14:29:50;;;;;;;5.45;3.67;;;7.80;99.90;;;;;;5008126;28;20045;-70
2022/01/23 14:35:07;;;;;;;4.50;2.55;;;7.70;99.90;;;;;;4999111;28;20049;-73
2022/01/23 14:37:33;;;;;;;4.32;2.58;;;7.80;99.90;;;;;;5016129;28;20049;-71
2022/01/23 14:40:13;;;;;;;4.00;2.50;;;7.80;99.90;;;;;;4982647;28;20053;-73
2022/01/23 14:42:38;;;;;;;4.35;2.25;;;7.70;99.90;;;;;;5016066;28;20084;-71
2022/01/23 14:45:06;;;;;;;4.00;2.30;;;7.70;99.90;;;;;;5016051;28;20081;-71
2022/01/23 14:47:38;;;;;;;5.88;2.50;;;7.70;99.90;;;;;;4998913;28;20056;-73
2022/01/23 14:50:11;;;;;;;5.03;2.33;;;7.70;99.90;;;;;;5016036;28;20042;-71
2022/01/23 14:52:38;;;;;;;6.80;2.53;;;7.70;99.90;;;;;;5015689;28;20050;-72
2022/01/23 14:55:04;;;;;;;5.15;2.33;;;7.60;99.90;;;;;;5014988;28;20466;-71
2022/01/23 14:57:32;;;;;;;5.35;2.40;;;7.60;99.90;;;;;;5015695;28;20042;-71
2022/01/23 14:59:59;;;;;;;5.07;2.17;;;7.50;99.90;;;;;;5015705;28;20192;-70
2022/01/23 15:02:25;;;;;;;5.03;2.50;;;7.50;99.90;;;;;;4998688;28;20056;-72
2022/01/23 15:04:51;;;;;;;7.00;2.38;;;7.50;99.90;;;;;;5015520;28;20552;-71
2022/01/23 15:07:18;;;;;;;4.68;2.50;;;7.50;99.90;;;;;;5015911;28;20042;-73
2022/01/23 15:09:48;;;;;;;5.00;2.45;;;7.50;99.90;;;;;;5015553;28;20459;-71
2022/01/23 15:12:15;;;;;;;4.32;2.55;;;7.40;99.90;;;;;;5015394;28;20458;-73
2022/01/23 15:14:41;;;;;;;4.43;2.92;;;7.40;99.90;;;;;;5015764;28;20048;-72
2022/01/23 15:17:06;;;;;;;11.68;4.63;;;7.40;99.90;;;;;;4997990;28;20121;-72
2022/01/23 15:19:33;;;;;;;5.75;3.80;;;7.40;99.90;;;;;;5015730;28;20129;-73
2022/01/23 15:21:59;;;;;;;7.30;3.70;;;7.30;99.90;;;;;;4998254;28;20418;-71
2022/01/23 15:24:25;;;;;;;4.22;2.45;;;7.30;99.90;;;;;;5015303;28;20066;-73
2022/01/23 15:26:51;;;;;;;5.65;2.17;;;7.30;99.90;;;;;;4997963;28;20482;-71
2022/01/23 15:29:16;;;;;;;4.32;2.50;;;7.20;99.90;;;;;;5015662;28;20053;-72
2022/01/23 15:31:42;;;;;;;4.72;2.35;;;7.20;99.90;;;;;;5014857;28;20057;-71
2022/01/23 15:34:08;;;;;;;3.88;2.50;;;7.20;99.90;;;;;;4998116;28;20054;-71
2022/01/23 15:36:34;;;;;;;6.35;2.53;;;7.20;99.90;;;;;;5015379;28;20046;-70
2022/01/23 15:39:01;;;;;;;5.18;2.65;;;7.20;99.90;;;;;;5014890;28;20058;-71
2022/01/23 15:41:26;;;;;;;4.32;2.20;;;7.20;99.90;;;;;;5014998;28;20520;-71
2022/01/23 15:43:52;;;;;;;5.28;2.70;;;7.10;99.90;;;;;;5015450;28;20041;-72
2022/01/23 15:46:17;;;;;;;4.53;2.67;;;7.10;99.90;;;;;;4998612;28;20494;-72
2022/01/23 15:48:43;;;;;;;4.15;2.72;;;7.10;99.90;;;;;;4998324;28;20180;-71
2022/01/23 15:51:09;;;;;;;4.30;2.90;;;7.10;99.90;;;;;;5015424;28;20054;-71
2022/01/23 15:53:35;;;;;;;6.75;3.38;;;7.10;99.90;;;;;;5014788;28;20072;-73
2022/01/23 15:56:01;;;;;;;5.55;3.30;;;7.00;99.90;;;;;;5015245;28;20116;-72
2022/01/23 15:58:28;;;;;;;7.03;3.67;;;7.10;99.90;;;;;;5015354;28;20344;-72
2022/01/23 16:00:54;;;;;;;5.70;3.72;;;7.10;99.90;;;;;;5014984;28;20129;-71
2022/01/23 16:03:20;;;;;;;7.13;3.72;;;7.00;99.90;;;;;;5015230;28;20378;-72
2022/01/23 16:05:46;;;;;;;6.63;3.95;;;7.00;99.90;;;;;;5015268;28;20038;-70
2022/01/23 16:08:13;;;;;;;5.13;3.85;;;7.00;99.90;;;;;;5014549;28;20433;-71
2022/01/23 16:10:39;;;;;;;6.50;3.58;;;7.00;99.90;;;;;;5014663;28;20046;-71
2022/01/23 16:13:04;;;;;;;7.10;5.05;;;7.00;99.90;;;;;;5015278;28;20097;-73
2022/01/23 16:15:30;;;;;;;9.50;5.00;;;7.00;99.90;;;;;;5015273;28;20065;-73
2022/01/23 16:17:56;;;;;;;8.68;4.60;;;7.00;99.90;;;;;;5014842;28;20046;-71
2022/01/23 16:20:21;;;;;;;8.35;4.55;;;7.00;99.90;;;;;;4997703;28;20054;-72
2022/01/23 16:22:48;;;;;;;6.00;4.20;;;7.00;99.90;;;;;;5014237;28;20034;-72